CheckWX is a tool to help pilots better visualize weather data.  It is not intended as a substitute for an official pre-flight weather briefing.

09:29:36 UTC

KNRS METAR
Imperial Beach Nolf (Ream Field) Airport
Imperial Beach, California, USA
Current

34 mins ago

KNRS 200856Z 10008KT 7SM CLR 06/02 A3012 RMK AO2 SLP198 T00610022 58010
Observed
Feb-20 @ 08:56 UTC
Wind
  • 100° at 8 KTS
Visibility
11,265 meters
Flight Rules
VFR
Cloud Levels
  • Clear skies
Temperature
C / 43°F
Dewpoint
C / 36°F
Humidity
76%
Altimeter
30.12" Hg
Pressure
1019.8 hPa
Previous

2 hours ago

KNRS 200756Z 10008KT 6SM HZ CLR 07/03 A3014 RMK AO2 SLP204 T00670028 401390044
Observed
Feb-20 @ 07:56 UTC
Wind
  • 100° at 8 KTS
Visibility
9,656 meters
Flight Rules
VFR
Conditions
Haze
Cloud Levels
  • Clear skies
Temperature
C / 45°F
Dewpoint
C / 37°F
Humidity
76%
Altimeter
30.14" Hg
Pressure
1020.4 hPa
Previous

3 hours ago

KNRS 200656Z 10007KT 7SM CLR 06/02 A3014 RMK AO2 SLP205 T00610022
Observed
Feb-20 @ 06:56 UTC
Wind
  • 100° at 7 KTS
Visibility
11,265 meters
Flight Rules
VFR
Cloud Levels
  • Clear skies
Temperature
C / 43°F
Dewpoint
C / 36°F
Humidity
76%
Altimeter
30.14" Hg
Pressure
1020.5 hPa